Terminal Aerodrome Forecast
Issued by NWS Wichita, KS

Home | Current Version | Previous Version | Graphics & Text | Print | Product List | Glossary Off
Versions: 1 2 3 4 5 6 7 8 9 10 11 12 13 14 15 16 17 18 19 20 21 22 23 24 25 26 27 28 29 30

000
FTUS43 KICT 182039 AAA
TAFICT
TAF AMD
KICT 182039Z 1821/1918 36006KT P6SM OVC012
      TEMPO 1821/1901 5SM BR OVC008
     FM190300 04004KT 3SM BR OVC004
     FM190800 07004KT 1SM BR OVC003
     FM191500 17004KT 3SM BR OVC004=

USA.gov is the U.S. government's official web portal to all federal, state and local government web resources and services.